Leviticus — WDC2712 — position and weather

sailwx.info

Track history (hours):
 
Tides and Currents Weather Stations Pressure Air Temp Water Temp Dewpoint Dewpoint Depression Visibility Wind Speed Wind Dir Waves Ship Positions

Leviticus

Owner: Kirby Inland Marine, LP, Houston, TX. More information available from US FCC via Universal Licensing System and Coast Guard Vessel Documentation Center.

Last reported at 2017-Jul-22 20:08 UTC. Time now 2017-Jul-24 18:48 UTC.
Position N 32°04' W 091°03'.

Length 320 m; draft 2.9 m.

Type: . MMSI: 366996690.

Date/timePositionNaut miles runAvg speedWind from/ knotsBaromVisibWave heightAir tempDewpointWater temp
2017-Jul-22 20:08N 32°04' W 091°03'2 9.2
2017-Jul-22 19:55N 32°05' W 091°05'4 4.6
2017-Jul-22 19:09N 32°07' W 091°02'2 9.3
2017-Jul-22 18:59N 32°08' W 091°00'5 9.9
2017-Jul-22 18:30N 32°13' W 090°59'4 9.0
2017-Jul-22 18:01N 32°17' W 090°57'4 7.5
2017-Jul-22 17:30N 32°20' W 090°54'510.0
2017-Jul-22 17:00N 32°21' W 090°60'4 8.6
2017-Jul-22 16:31N 32°25' W 091°01'510.7
2017-Jul-22 16:00N 32°28' W 091°06'5 9.9
2017-Jul-22 15:30N 32°33' W 091°06'  
Track history (hours):
 
Tides and Currents Weather Stations Pressure Air Temp Water Temp Dewpoint Dewpoint Depression Visibility Wind Speed Wind Dir Waves Ship Positions

Leviticus

Owner: Kirby Inland Marine, LP, Houston, TX. More information available from US FCC via Universal Licensing System and Coast Guard Vessel Documentation Center.

Last reported at 2017-Jul-22 20:08 UTC. Time now 2017-Jul-24 18:48 UTC.
Position N 32°04' W 091°03'.

Length 320 m; draft 2.9 m.

Type: . MMSI: 366996690.

Date/timePositionNaut miles runAvg speedWind from/ knotsBaromVisibWave heightAir tempDewpointWater temp
2017-Jul-22 20:08N 32°04' W 091°03'2 9.2
2017-Jul-22 19:55N 32°05' W 091°05'4 4.6
2017-Jul-22 19:09N 32°07' W 091°02'2 9.3
2017-Jul-22 18:59N 32°08' W 091°00'5 9.9
2017-Jul-22 18:30N 32°13' W 090°59'4 9.0
2017-Jul-22 18:01N 32°17' W 090°57'4 7.5
2017-Jul-22 17:30N 32°20' W 090°54'510.0
2017-Jul-22 17:00N 32°21' W 090°60'4 8.6
2017-Jul-22 16:31N 32°25' W 091°01'510.7
2017-Jul-22 16:00N 32°28' W 091°06'5 9.9
2017-Jul-22 15:30N 32°33' W 091°06'  

Dump ship's entire track history